LPPR/OPO METAR and TAF weather

Enter ICAO airport designator
Station Type Date Time Source
LPPR METAR 2019/08/20 10:00 UTC NOAA

LPPR 201000Z 01005KT 340V070 CAVOK 23/15 Q1020


Station Type Date Time Source
LPPR Decoded METAR 2019/08/20 10:00 UTC NOAA

Porto / Pedras Rubras, Portugal (LPPR) 41-14N 008-41W 77M
Aug 20, 2019 - 06:00 AM EDT / 2019.08.20 1000 UTC
Wind: from the N (010 degrees) at 6 MPH (5 KT) (direction variable):0
Visibility: greater than 7 mile(s):0
Temperature: 73 F (23 C)
Dew Point: 59 F (15 C)
Relative Humidity: 60%
Pressure (altimeter): 30.12 in. Hg (1020 hPa)
ob: LPPR 201000Z 01005KT 340V070 CAVOK 23/15 Q1020
cycle: 10

Station Type Date Time Source
LPPR TAF 2019/08/20 06:18 UTC NOAA

TAF LPPR 200500Z 2006/2106 VRB03KT CAVOK
BECMG 2009/2012 31007KT
BECMG 2012/2014 33013KT
BECMG 2019/2022 VRB03KT
BECMG 2100/2103 09007KT

Example: see airport list